createdAt,value
2022-09-12T00:01:19.326Z,13.61
2022-09-12T00:03:46.829Z,13.63
2022-09-12T00:06:37.579Z,13.70
2022-09-12T00:09:14.196Z,13.49
2022-09-12T00:11:46.151Z,13.40
2022-09-12T00:14:18.385Z,13.23
2022-09-12T00:16:45.605Z,13.15
2022-09-12T00:19:13.252Z,13.35
2022-09-12T00:21:40.993Z,13.46
2022-09-12T00:24:09.358Z,13.44
2022-09-12T00:26:36.795Z,13.44
2022-09-12T00:29:03.772Z,13.38
2022-09-12T00:31:30.829Z,13.45
2022-09-12T00:34:00.867Z,13.49
2022-09-12T00:36:30.406Z,13.49
2022-09-12T00:38:57.674Z,13.09
2022-09-12T00:41:33.912Z,13.14
2022-09-12T00:44:23.293Z,13.04
2022-09-12T00:47:05.409Z,13.06
2022-09-12T00:50:09.601Z,12.97
2022-09-12T00:52:53.533Z,12.95
2022-09-12T00:55:27.818Z,12.98
2022-09-12T00:58:10.177Z,12.77
2022-09-12T01:00:37.470Z,12.65
2022-09-12T01:03:15.521Z,12.60
2022-09-12T01:06:09.369Z,12.77
2022-09-12T01:08:37.412Z,12.89
2022-09-12T01:11:06.706Z,12.98
2022-09-12T01:13:36.266Z,12.89
2022-09-12T01:16:08.392Z,13.04
2022-09-12T01:19:46.277Z,13.02
2022-09-12T01:23:37.826Z,12.95
2022-09-12T01:26:43.148Z,12.66
2022-09-12T01:29:41.047Z,12.57
2022-09-12T01:32:12.977Z,12.80
2022-09-12T01:34:56.711Z,12.89
2022-09-12T01:38:23.795Z,12.92
2022-09-12T01:41:31.368Z,12.71
2022-09-12T01:44:06.710Z,12.48
2022-09-12T01:47:10.144Z,12.35
2022-09-12T01:49:52.824Z,12.23
2022-09-12T01:52:58.968Z,12.12
2022-09-12T01:55:42.691Z,12.25
2022-09-12T01:58:29.615Z,12.42
2022-09-12T02:01:15.266Z,12.29
2022-09-12T02:03:56.046Z,12.05
2022-09-12T02:06:58.766Z,12.25
2022-09-12T02:09:42.999Z,12.47
2022-09-12T02:12:14.777Z,12.60
2022-09-12T02:14:50.058Z,12.59
2022-09-12T02:17:22.943Z,12.59
2022-09-12T02:20:06.995Z,12.51
2022-09-12T02:22:38.801Z,12.68
2022-09-12T02:25:11.519Z,12.63
2022-09-12T02:27:54.290Z,12.60
2022-09-12T02:30:22.700Z,12.56
2022-09-12T02:33:04.122Z,12.58
2022-09-12T02:36:02.001Z,12.37
2022-09-12T02:38:47.903Z,12.08
2022-09-12T02:41:20.627Z,12.20
2022-09-12T02:43:50.393Z,12.29
2022-09-12T02:46:33.023Z,12.22
2022-09-12T02:48:59.986Z,12.13
2022-09-12T02:51:27.350Z,11.94
2022-09-12T02:53:54.562Z,11.88
2022-09-12T02:56:30.384Z,11.90
2022-09-12T02:59:07.991Z,11.76
2022-09-12T03:02:00.309Z,11.96
2022-09-12T03:05:03.224Z,12.12
2022-09-12T03:08:14.722Z,12.03
2022-09-12T03:10:57.642Z,11.93
2022-09-12T03:14:05.006Z,11.91
2022-09-12T03:17:14.404Z,12.06
2022-09-12T03:20:51.285Z,12.05
2022-09-12T03:24:05.140Z,11.65
2022-09-12T03:27:09.590Z,11.60
2022-09-12T03:29:39.191Z,11.69
2022-09-12T03:32:07.436Z,11.91
2022-09-12T03:34:34.528Z,11.94
2022-09-12T03:37:01.562Z,11.87
2022-09-12T03:39:28.669Z,11.88
2022-09-12T03:41:56.359Z,11.73
2022-09-12T03:44:24.179Z,11.64
2022-09-12T03:46:51.426Z,11.82
2022-09-12T03:49:18.633Z,11.95
2022-09-12T03:51:45.662Z,11.82
2022-09-12T03:54:12.734Z,11.84
2022-09-12T03:56:41.191Z,11.86
2022-09-12T03:59:08.252Z,11.86
2022-09-12T04:01:35.439Z,11.85
2022-09-12T04:04:03.434Z,11.66
2022-09-12T04:06:31.204Z,11.66
2022-09-12T04:08:58.548Z,11.60
2022-09-12T04:11:25.818Z,11.65
2022-09-12T04:13:53.072Z,11.60
2022-09-12T04:16:20.338Z,11.58
2022-09-12T04:18:47.599Z,11.51
2022-09-12T04:21:19.895Z,11.57
2022-09-12T04:23:47.016Z,11.57
2022-09-12T04:26:15.538Z,11.65
2022-09-12T04:28:42.733Z,11.70
2022-09-12T04:31:21.298Z,11.71
2022-09-12T04:33:53.133Z,11.71
2022-09-12T04:36:27.674Z,11.68
2022-09-12T04:38:55.688Z,11.67
2022-09-12T04:41:30.706Z,11.61
2022-09-12T04:44:13.180Z,11.66
2022-09-12T04:46:45.554Z,11.65
2022-09-12T04:49:14.341Z,11.52
2022-09-12T04:51:42.860Z,11.05
2022-09-12T04:54:19.119Z,11.11
2022-09-12T04:56:49.994Z,11.23
2022-09-12T04:59:19.893Z,11.24
2022-09-12T05:01:47.158Z,11.12
2022-09-12T05:04:14.950Z,11.19
2022-09-12T05:06:42.642Z,11.09
2022-09-12T05:09:14.127Z,11.21
2022-09-12T05:14:33.015Z,11.60
2022-09-12T05:17:01.990Z,11.80
2022-09-12T05:19:31.249Z,11.96
2022-09-12T05:21:59.110Z,11.91
2022-09-12T05:24:26.801Z,11.81
2022-09-12T05:26:54.040Z,11.81
2022-09-12T05:29:21.263Z,11.94
2022-09-12T05:31:53.429Z,12.19
2022-09-12T05:34:21.434Z,12.29
2022-09-12T05:36:49.180Z,12.15
2022-09-12T05:39:16.698Z,12.27
2022-09-12T05:41:43.943Z,12.16
2022-09-12T05:44:14.845Z,12.44
2022-09-12T05:46:45.616Z,12.61
2022-09-12T05:49:14.613Z,12.82
2022-09-12T05:51:45.995Z,12.86
2022-09-12T05:54:20.335Z,13.13
2022-09-12T05:56:51.387Z,13.30
2022-09-12T05:59:22.018Z,13.42
2022-09-12T06:01:49.617Z,13.49
2022-09-12T06:04:17.580Z,13.56
2022-09-12T06:06:46.335Z,13.59
2022-09-12T06:09:16.276Z,13.73
2022-09-12T06:11:44.847Z,13.85
2022-09-12T06:14:15.544Z,13.90
2022-09-12T06:16:43.031Z,13.96
2022-09-12T06:19:23.752Z,13.91
2022-09-12T06:21:51.556Z,13.72
2022-09-12T06:24:20.926Z,14.08
2022-09-12T06:26:49.850Z,13.92
2022-09-12T06:29:17.236Z,13.71
2022-09-12T06:31:44.762Z,13.95
2022-09-12T06:34:15.789Z,14.24
2022-09-12T06:36:47.314Z,13.99
2022-09-12T06:39:18.474Z,14.22
2022-09-12T06:41:46.243Z,14.13
2022-09-12T06:44:20.912Z,14.10
2022-09-12T06:46:49.487Z,14.17
2022-09-12T06:49:17.742Z,14.36
2022-09-12T06:51:45.035Z,14.42
2022-09-12T06:54:17.167Z,14.39
2022-09-12T06:56:45.172Z,14.49
2022-09-12T06:59:12.547Z,14.34
2022-09-12T07:01:41.159Z,14.41
2022-09-12T07:04:08.722Z,14.40
2022-09-12T07:06:40.690Z,14.48
2022-09-12T07:09:16.468Z,14.70
2022-09-12T07:11:44.611Z,14.85
2022-09-12T07:14:14.488Z,15.10
2022-09-12T07:16:42.282Z,14.97
2022-09-12T07:19:10.218Z,15.00
2022-09-12T07:21:39.973Z,15.21
2022-09-12T07:24:10.182Z,15.48
2022-09-12T07:26:40.529Z,15.16
2022-09-12T07:29:35.438Z,15.36
2022-09-12T07:32:01.593Z,15.57
2022-09-12T07:34:28.631Z,15.68
2022-09-12T07:36:55.589Z,15.80
2022-09-12T07:39:22.527Z,15.70
2022-09-12T07:41:49.560Z,15.73
2022-09-12T07:44:16.773Z,15.61
2022-09-12T07:46:43.801Z,15.84
2022-09-12T07:49:13.227Z,16.04
2022-09-12T07:51:41.152Z,16.20
2022-09-12T07:54:09.596Z,16.46
2022-09-12T07:56:39.220Z,16.50
2022-09-12T07:59:08.210Z,16.70
2022-09-12T08:01:35.436Z,16.87
2022-09-12T08:04:04.881Z,16.82
2022-09-12T08:06:33.794Z,16.95
2022-09-12T08:09:01.876Z,17.22
2022-09-12T08:11:30.258Z,17.07
2022-09-12T08:13:58.542Z,17.00
2022-09-12T08:16:30.240Z,17.21
2022-09-12T08:18:59.817Z,17.32
2022-09-12T08:21:32.734Z,17.52
2022-09-12T08:24:06.137Z,17.96
2022-09-12T08:26:34.721Z,17.82
2022-09-12T08:29:03.788Z,17.63
2022-09-12T08:31:36.362Z,18.10
2022-09-12T08:34:07.119Z,18.46
2022-09-12T08:36:35.325Z,18.19
2022-09-12T08:39:07.092Z,18.37
2022-09-12T08:42:02.865Z,17.88
2022-09-12T08:45:15.882Z,18.37
2022-09-12T08:47:46.866Z,18.75
2022-09-12T08:50:22.265Z,18.03
2022-09-12T08:53:10.414Z,18.41
2022-09-12T08:55:46.666Z,18.52
2022-09-12T08:58:25.230Z,18.27
2022-09-12T09:01:29.998Z,18.80
2022-09-12T09:04:18.471Z,18.91
2022-09-12T09:07:43.709Z,18.71
2022-09-12T09:10:53.599Z,19.05
2022-09-12T09:13:56.577Z,19.25
2022-09-12T09:16:33.251Z,19.13
2022-09-12T09:19:12.768Z,18.93
2022-09-12T09:22:06.272Z,19.20
2022-09-12T09:24:48.173Z,19.19
2022-09-12T09:27:41.627Z,19.14
2022-09-12T09:30:21.305Z,19.38
2022-09-12T09:32:57.381Z,19.45
2022-09-12T09:35:48.788Z,20.19
2022-09-12T09:38:46.088Z,20.38
2022-09-12T09:41:40.868Z,20.71
2022-09-12T09:46:40.024Z,20.38
2022-09-12T09:49:12.146Z,20.03
2022-09-12T09:51:42.590Z,20.07
2022-09-12T09:54:34.055Z,20.61
2022-09-12T09:57:01.251Z,20.21
2022-09-12T09:59:33.708Z,20.26
2022-09-12T10:02:14.972Z,20.74
2022-09-12T10:04:56.248Z,20.74
2022-09-12T10:07:24.675Z,21.62
2022-09-12T10:10:25.266Z,21.05
2022-09-12T10:13:30.882Z,21.17
2022-09-12T10:16:05.321Z,22.04
2022-09-12T10:18:42.678Z,21.26
2022-09-12T10:21:38.018Z,20.83
2022-09-12T10:24:30.889Z,20.14
2022-09-12T10:27:35.681Z,19.85
2022-09-12T10:30:29.235Z,19.51
2022-09-12T10:33:11.082Z,20.20
2022-09-12T10:35:49.736Z,19.55
2022-09-12T10:38:33.027Z,19.79
2022-09-12T10:41:06.649Z,21.03
2022-09-12T10:43:33.523Z,21.00
2022-09-12T10:46:28.768Z,21.16
2022-09-12T10:49:38.200Z,21.13
2022-09-12T10:52:27.318Z,22.02
2022-09-12T10:54:55.036Z,21.91
2022-09-12T10:57:51.212Z,22.01
2022-09-12T11:00:27.481Z,22.39
2022-09-12T11:03:14.666Z,23.24
2022-09-12T11:05:53.343Z,23.57
2022-09-12T11:08:51.611Z,22.14
2022-09-12T11:11:58.980Z,22.54
2022-09-12T11:15:11.049Z,22.01
2022-09-12T11:18:37.739Z,22.47
2022-09-12T11:21:34.347Z,22.72
2022-09-12T11:24:40.655Z,23.00
2022-09-12T11:27:23.698Z,23.99
2022-09-12T11:30:10.723Z,23.77
2022-09-12T11:32:49.892Z,23.23
2022-09-12T11:35:33.711Z,22.64
2022-09-12T11:38:58.817Z,22.88
2022-09-12T11:41:39.838Z,22.79
2022-09-12T11:44:24.684Z,22.66
2022-09-12T11:46:52.337Z,23.25
2022-09-12T11:49:47.284Z,23.87
2022-09-12T11:52:33.357Z,22.98
2022-09-12T11:55:22.844Z,24.41
2022-09-12T11:58:01.658Z,23.41
2022-09-12T12:00:47.016Z,23.77
2022-09-12T12:03:41.259Z,23.45
2022-09-12T12:06:56.190Z,23.26
2022-09-12T12:09:23.580Z,23.80
2022-09-12T12:11:57.581Z,23.34
2022-09-12T12:14:46.095Z,23.99
2022-09-12T12:17:18.787Z,24.67
2022-09-12T12:19:56.436Z,24.07
2022-09-12T12:22:25.437Z,24.28
2022-09-12T12:25:38.722Z,25.07
2022-09-12T12:28:06.453Z,25.36
2022-09-12T12:30:34.131Z,25.33
2022-09-12T12:33:22.632Z,25.97
2022-09-12T12:36:01.664Z,25.26
2022-09-12T12:38:33.833Z,24.48
2022-09-12T12:41:19.194Z,25.69
2022-09-12T12:43:56.340Z,26.03
2022-09-12T12:46:27.094Z,24.67
2022-09-12T12:49:27.696Z,24.54
2022-09-12T12:51:54.487Z,23.98
2022-09-12T12:54:41.083Z,25.29
2022-09-12T12:57:46.100Z,24.67
2022-09-12T13:00:39.826Z,25.65
2022-09-12T13:03:07.117Z,25.88
2022-09-12T13:06:00.468Z,25.26
2022-09-12T13:08:36.467Z,25.68
2022-09-12T13:11:09.650Z,24.83
2022-09-12T13:14:46.894Z,25.54
2022-09-12T13:17:35.625Z,25.48
2022-09-12T13:20:27.884Z,23.74
2022-09-12T13:22:59.196Z,24.84
2022-09-12T13:25:35.279Z,25.08
2022-09-12T13:28:11.394Z,24.78
2022-09-12T13:30:44.183Z,24.10
2022-09-12T13:33:39.511Z,24.22
2022-09-12T13:36:23.540Z,24.71
2022-09-12T13:39:22.182Z,23.91
2022-09-12T13:42:49.277Z,23.27
2022-09-12T13:45:27.698Z,23.60
2022-09-12T13:50:46.257Z,22.98
2022-09-12T13:53:25.871Z,24.20
2022-09-12T13:56:01.250Z,24.14
2022-09-12T13:58:36.819Z,23.00
2022-09-12T14:01:15.998Z,23.64
2022-09-12T14:04:12.569Z,23.96
2022-09-12T14:06:50.673Z,23.64
2022-09-12T14:09:38.544Z,23.98
2022-09-12T14:12:25.643Z,23.24
2022-09-12T14:14:53.591Z,23.39
2022-09-12T14:17:39.670Z,22.45
2022-09-12T14:20:18.507Z,22.71
2022-09-12T14:22:50.938Z,22.45
2022-09-12T14:25:29.979Z,22.41
2022-09-12T14:27:59.029Z,22.28
2022-09-12T14:30:36.703Z,22.92
2022-09-12T14:33:12.657Z,22.79
2022-09-12T14:36:32.661Z,22.35
2022-09-12T14:39:14.311Z,22.02
2022-09-12T14:41:43.037Z,21.99
2022-09-12T14:44:22.913Z,22.46
2022-09-12T14:46:50.363Z,22.16
2022-09-12T14:49:28.759Z,21.92
2022-09-12T14:52:00.850Z,21.65
2022-09-12T14:54:31.090Z,21.99
2022-09-12T14:57:19.220Z,21.99
2022-09-12T14:59:46.275Z,22.16
2022-09-12T15:02:26.087Z,22.36
2022-09-12T15:05:12.790Z,21.83
2022-09-12T15:07:47.097Z,21.85
2022-09-12T15:10:37.609Z,21.87
2022-09-12T15:13:11.076Z,21.91
2022-09-12T15:15:41.339Z,22.08
2022-09-12T15:18:10.647Z,22.27
2022-09-12T15:20:41.247Z,22.30
2022-09-12T15:23:51.140Z,22.05
2022-09-12T15:26:26.389Z,21.84
2022-09-12T15:28:53.958Z,21.99
2022-09-12T15:31:32.586Z,21.88
2022-09-12T15:34:02.521Z,22.01
2022-09-12T15:36:29.799Z,22.05
2022-09-12T15:38:57.504Z,21.34
2022-09-12T15:41:36.948Z,21.30
2022-09-12T15:44:13.250Z,21.25
2022-09-12T15:46:40.581Z,21.72
2022-09-12T15:49:07.747Z,21.36
2022-09-12T15:51:34.735Z,21.63
2022-09-12T15:54:04.375Z,21.54
2022-09-12T15:56:31.401Z,21.15
2022-09-12T15:59:00.052Z,21.04
2022-09-12T16:01:28.886Z,21.00
2022-09-12T16:03:58.522Z,20.75
2022-09-12T16:06:25.919Z,21.16
2022-09-12T16:08:52.945Z,21.30
2022-09-12T16:11:26.633Z,21.22
2022-09-12T16:13:55.971Z,21.22
2022-09-12T16:16:23.513Z,21.36
2022-09-12T16:18:50.658Z,21.23
2022-09-12T16:21:18.122Z,20.55
2022-09-12T16:23:47.082Z,20.00
2022-09-12T16:26:14.926Z,19.90
2022-09-12T16:28:42.096Z,19.86
2022-09-12T16:31:13.580Z,19.86
2022-09-12T16:33:40.893Z,19.84
2022-09-12T16:36:13.069Z,19.72
2022-09-12T16:38:53.683Z,19.72
2022-09-12T16:41:27.296Z,19.90
2022-09-12T16:43:55.171Z,19.83
2022-09-12T16:46:30.658Z,19.93
2022-09-12T16:48:59.013Z,19.84
2022-09-12T16:51:32.278Z,20.02
2022-09-12T16:53:59.350Z,19.91
2022-09-12T16:56:26.433Z,19.90
2022-09-12T16:58:53.969Z,19.99
2022-09-12T17:01:26.270Z,19.93
2022-09-12T17:03:58.369Z,19.98
2022-09-12T17:06:26.892Z,19.85
2022-09-12T17:09:00.718Z,19.00
2022-09-12T17:11:36.351Z,18.63
2022-09-12T17:14:07.616Z,18.51
2022-09-12T17:16:41.931Z,18.42
2022-09-12T17:19:30.171Z,18.45
2022-09-12T17:21:58.591Z,18.75
2022-09-12T17:24:25.806Z,19.06
2022-09-12T17:26:53.663Z,19.24
2022-09-12T17:29:21.025Z,19.30
2022-09-12T17:31:48.809Z,19.12
2022-09-12T17:34:16.337Z,18.85
2022-09-12T17:36:45.360Z,18.81
2022-09-12T17:39:13.843Z,18.93
2022-09-12T17:41:42.590Z,18.59
2022-09-12T17:44:13.825Z,18.47
2022-09-12T17:46:41.591Z,18.37
2022-09-12T17:49:15.458Z,18.31
2022-09-12T17:51:43.925Z,18.40
2022-09-12T17:54:18.255Z,18.22
2022-09-12T17:56:48.984Z,18.32
2022-09-12T17:59:23.950Z,17.82
2022-09-12T18:02:09.925Z,17.54
2022-09-12T18:04:37.401Z,17.68
2022-09-12T18:07:04.910Z,17.65
2022-09-12T18:09:32.107Z,17.78
2022-09-12T18:11:59.587Z,17.79
2022-09-12T18:14:28.236Z,17.97
2022-09-12T18:16:57.137Z,18.00
2022-09-12T18:19:24.723Z,18.03
2022-09-12T18:21:51.660Z,17.83
2022-09-12T18:24:18.766Z,17.78
2022-09-12T18:26:46.018Z,17.70
2022-09-12T18:29:16.864Z,17.44
2022-09-12T18:31:45.987Z,17.32
2022-09-12T18:34:14.036Z,17.24
2022-09-12T18:36:43.417Z,17.01
2022-09-12T18:39:11.437Z,16.79
2022-09-12T18:41:39.069Z,16.56
2022-09-12T18:44:07.599Z,16.19
2022-09-12T18:46:35.691Z,16.12
2022-09-12T18:49:03.545Z,15.97
2022-09-12T18:51:34.870Z,15.78
2022-09-12T18:54:11.357Z,16.01
2022-09-12T18:56:39.408Z,15.94
2022-09-12T18:59:07.640Z,16.05
2022-09-12T19:01:38.197Z,16.16
2022-09-12T19:04:08.010Z,15.86
2022-09-12T19:06:42.774Z,16.19
2022-09-12T19:09:12.924Z,16.33
2022-09-12T19:11:49.548Z,16.12
2022-09-12T19:14:23.240Z,15.89
2022-09-12T19:16:52.052Z,15.79
2022-09-12T19:19:21.182Z,15.84
2022-09-12T19:21:48.550Z,15.57
2022-09-12T19:24:16.980Z,15.89
2022-09-12T19:26:44.716Z,15.99
2022-09-12T19:29:13.757Z,15.80
2022-09-12T19:31:41.023Z,15.69
2022-09-12T19:34:08.293Z,15.55
2022-09-12T19:36:51.420Z,15.29
2022-09-12T19:39:19.842Z,15.28
2022-09-12T19:41:48.157Z,15.20
2022-09-12T19:44:15.233Z,14.98
2022-09-12T19:46:42.590Z,14.76
2022-09-12T19:49:12.747Z,14.92
2022-09-12T19:51:40.287Z,14.90
2022-09-12T19:54:07.802Z,14.93
2022-09-12T19:56:34.899Z,15.07
2022-09-12T19:59:01.882Z,14.93
2022-09-12T20:01:29.162Z,14.82
2022-09-12T20:03:58.340Z,14.55
2022-09-12T20:06:27.261Z,14.39
2022-09-12T20:08:55.318Z,14.30
2022-09-12T20:11:24.012Z,14.60
2022-09-12T20:13:51.646Z,14.48
2022-09-12T20:16:26.453Z,14.30
2022-09-12T20:19:03.767Z,14.16
2022-09-12T20:21:34.081Z,14.07
2022-09-12T20:24:15.724Z,14.11
2022-09-12T20:26:42.924Z,14.20
2022-09-12T20:29:10.779Z,14.34
2022-09-12T20:31:41.765Z,14.21
2022-09-12T20:34:17.729Z,14.05
2022-09-12T20:36:45.879Z,13.93
2022-09-12T20:39:22.533Z,13.93
2022-09-12T20:41:50.019Z,13.97
2022-09-12T20:44:17.205Z,14.04
2022-09-12T20:46:44.289Z,14.05
2022-09-12T20:49:11.431Z,14.02
2022-09-12T20:51:38.931Z,13.98
2022-09-12T20:54:07.304Z,14.04
2022-09-12T20:56:37.137Z,13.86
2022-09-12T20:59:05.101Z,13.82
2022-09-12T21:01:32.675Z,13.88
2022-09-12T21:04:01.093Z,13.82
2022-09-12T21:06:28.395Z,13.73
2022-09-12T21:09:00.599Z,13.75
2022-09-12T21:11:29.003Z,13.86
2022-09-12T21:13:56.315Z,13.75
2022-09-12T21:16:23.973Z,13.72
2022-09-12T21:18:58.055Z,13.80
2022-09-12T21:21:26.063Z,13.80
2022-09-12T21:23:55.193Z,13.76
2022-09-12T21:26:22.134Z,13.62
2022-09-12T21:28:49.097Z,13.50
2022-09-12T21:31:16.300Z,13.48
2022-09-12T21:33:43.314Z,13.43
2022-09-12T21:36:10.569Z,13.43
2022-09-12T21:38:37.570Z,13.33
2022-09-12T21:41:16.299Z,13.18
2022-09-12T21:43:43.943Z,13.16
2022-09-12T21:46:11.900Z,13.29
2022-09-12T21:48:38.947Z,13.26
2022-09-12T21:51:06.864Z,13.36
2022-09-12T21:53:35.415Z,13.35
2022-09-12T21:56:07.147Z,13.41
2022-09-12T21:58:35.150Z,13.48
2022-09-12T22:01:04.528Z,13.47
2022-09-12T22:03:32.018Z,13.40
2022-09-12T22:06:01.874Z,13.45
2022-09-12T22:08:32.528Z,13.39
2022-09-12T22:11:03.457Z,13.40
2022-09-12T22:13:32.019Z,13.41
2022-09-12T22:16:03.134Z,13.41
2022-09-12T22:18:34.564Z,13.37
2022-09-12T22:21:14.145Z,13.37
2022-09-12T22:24:00.430Z,13.33
2022-09-12T22:26:28.105Z,13.23
2022-09-12T22:28:55.443Z,13.23
2022-09-12T22:31:23.100Z,13.21
2022-09-12T22:33:51.418Z,13.23
2022-09-12T22:36:18.370Z,13.29
2022-09-12T22:38:45.399Z,13.35
2022-09-12T22:41:13.120Z,13.35
2022-09-12T22:43:40.315Z,13.22
2022-09-12T22:46:14.786Z,13.27
2022-09-12T22:48:42.728Z,13.38
2022-09-12T22:51:10.718Z,13.38
2022-09-12T22:53:38.175Z,13.31
2022-09-12T22:56:07.015Z,13.27
2022-09-12T22:58:39.147Z,13.29
2022-09-12T23:01:07.197Z,13.42
2022-09-12T23:03:34.557Z,13.36
2022-09-12T23:06:01.925Z,13.44
2022-09-12T23:08:29.616Z,13.43
2022-09-12T23:11:19.627Z,13.36
2022-09-12T23:13:49.595Z,13.27
2022-09-12T23:16:21.585Z,13.26
2022-09-12T23:18:49.301Z,13.19
2022-09-12T23:21:21.187Z,13.20
2022-09-12T23:23:48.496Z,13.16
2022-09-12T23:26:28.130Z,13.27
2022-09-12T23:28:59.034Z,13.16
2022-09-12T23:31:30.266Z,13.13
2022-09-12T23:34:02.110Z,13.13
2022-09-12T23:36:29.680Z,13.09
2022-09-12T23:38:58.133Z,13.19
2022-09-12T23:41:25.467Z,13.11
2022-09-12T23:43:52.638Z,13.11
2022-09-12T23:46:20.785Z,13.05
2022-09-12T23:48:48.312Z,13.05
2022-09-12T23:51:15.941Z,12.84
2022-09-12T23:53:42.951Z,12.90
2022-09-12T23:56:10.023Z,13.01
2022-09-12T23:58:37.126Z,13.11
